createdAt,value
2018-05-10T00:00:38.273Z,23.66
2018-05-10T00:03:06.647Z,23.69
2018-05-10T00:05:35.119Z,23.84
2018-05-10T00:08:03.494Z,23.59
2018-05-10T00:10:31.909Z,23.62
2018-05-10T00:13:00.758Z,23.44
2018-05-10T00:15:29.114Z,23.20
2018-05-10T00:17:57.479Z,22.98
2018-05-10T00:20:25.850Z,23.21
2018-05-10T00:22:54.227Z,23.16
2018-05-10T00:25:22.781Z,23.01
2018-05-10T00:27:51.096Z,23.23
2018-05-10T00:30:19.580Z,23.36
2018-05-10T00:32:47.966Z,23.09
2018-05-10T00:35:16.343Z,22.99
2018-05-10T00:37:44.703Z,22.83
2018-05-10T00:40:13.072Z,22.86
2018-05-10T00:42:41.834Z,22.91
2018-05-10T00:45:10.211Z,23.11
2018-05-10T00:47:38.574Z,23.21
2018-05-10T00:50:06.934Z,23.44
2018-05-10T00:52:35.294Z,23.47
2018-05-10T00:55:03.657Z,23.26
2018-05-10T00:57:32.512Z,23.34
2018-05-10T01:00:00.890Z,23.33
2018-05-10T01:02:29.282Z,23.39
2018-05-10T01:04:57.752Z,23.42
2018-05-10T01:07:26.443Z,23.24
2018-05-10T01:09:54.920Z,23.39
2018-05-10T01:12:23.357Z,23.28
2018-05-10T01:14:51.712Z,23.39
2018-05-10T01:17:20.568Z,23.66
2018-05-10T01:19:48.936Z,23.30
2018-05-10T01:22:17.304Z,23.19
2018-05-10T01:24:45.691Z,23.24
2018-05-10T01:27:14.068Z,23.43
2018-05-10T01:29:42.443Z,23.68
2018-05-10T01:32:10.837Z,23.61
2018-05-10T01:34:39.196Z,23.15
2018-05-10T01:37:07.585Z,23.21
2018-05-10T01:39:35.950Z,23.47
2018-05-10T01:42:04.314Z,23.52
2018-05-10T01:44:32.699Z,23.14
2018-05-10T01:47:01.081Z,23.08
2018-05-10T01:49:29.469Z,23.06
2018-05-10T01:51:57.892Z,23.11
2018-05-10T01:54:27.408Z,22.95
2018-05-10T01:56:56.178Z,22.85
2018-05-10T01:59:24.630Z,22.86
2018-05-10T02:01:53.025Z,22.87
2018-05-10T02:04:21.408Z,23.07
2018-05-10T02:06:49.768Z,23.26
2018-05-10T02:09:18.130Z,23.01
2018-05-10T02:11:46.516Z,22.66
2018-05-10T02:14:14.908Z,22.40
2018-05-10T02:16:43.270Z,22.70
2018-05-10T02:19:11.634Z,22.76
2018-05-10T02:21:40.056Z,22.59
2018-05-10T02:24:08.440Z,22.46
2018-05-10T02:26:36.909Z,22.63
2018-05-10T02:29:05.271Z,22.49
2018-05-10T02:31:33.646Z,22.95
2018-05-10T02:34:02.022Z,22.95
2018-05-10T02:36:30.483Z,22.79
2018-05-10T02:38:58.904Z,22.46
2018-05-10T02:41:27.189Z,22.41
2018-05-10T02:43:55.565Z,22.47
2018-05-10T02:46:23.961Z,22.60
2018-05-10T02:48:52.411Z,22.84
2018-05-10T02:51:20.801Z,22.68
2018-05-10T02:53:49.162Z,22.98
2018-05-10T02:56:17.521Z,23.03
2018-05-10T02:58:45.887Z,22.99
2018-05-10T03:01:14.251Z,23.14
2018-05-10T03:03:43.039Z,23.05
2018-05-10T03:06:11.813Z,22.96
2018-05-10T03:08:40.198Z,23.52
2018-05-10T03:11:08.648Z,23.38
2018-05-10T03:13:37.019Z,23.39
2018-05-10T03:16:05.415Z,23.11
2018-05-10T03:18:33.790Z,23.38
2018-05-10T03:21:02.143Z,23.61
2018-05-10T03:23:30.646Z,23.47
2018-05-10T03:25:59.031Z,22.98
2018-05-10T03:28:27.500Z,23.18
2018-05-10T03:30:55.882Z,23.27
2018-05-10T03:33:24.349Z,23.56
2018-05-10T03:35:52.630Z,23.32
2018-05-10T03:38:20.990Z,23.23
2018-05-10T03:40:49.407Z,23.11
2018-05-10T03:43:17.768Z,23.19
2018-05-10T03:45:46.139Z,22.87
2018-05-10T03:48:14.508Z,23.17
2018-05-10T03:50:42.915Z,23.27
2018-05-10T03:53:11.307Z,23.02
2018-05-10T03:55:39.786Z,22.97
2018-05-10T03:58:08.145Z,22.83
2018-05-10T04:00:36.543Z,22.94
2018-05-10T04:06:50.323Z,23.14
2018-05-10T04:09:36.902Z,23.02
2018-05-10T04:12:05.285Z,22.85
2018-05-10T04:14:33.783Z,22.77
2018-05-10T04:17:02.146Z,22.98
2018-05-10T04:19:30.616Z,23.00
2018-05-10T04:21:58.985Z,22.92
2018-05-10T04:24:27.363Z,22.68
2018-05-10T04:26:56.380Z,22.62
2018-05-10T04:29:24.760Z,22.78
2018-05-10T04:31:53.226Z,22.90
2018-05-10T04:34:21.615Z,22.70
2018-05-10T04:36:50.015Z,22.85
2018-05-10T04:39:18.374Z,23.09
2018-05-10T04:41:46.735Z,23.17
2018-05-10T04:44:15.115Z,23.08
2018-05-10T04:46:43.475Z,22.84
2018-05-10T04:49:11.878Z,22.98
2018-05-10T04:51:40.253Z,23.42
2018-05-10T04:54:08.615Z,23.72
2018-05-10T04:56:36.983Z,23.81
2018-05-10T04:59:05.389Z,23.42
2018-05-10T05:01:33.886Z,23.70
2018-05-10T05:04:02.590Z,23.76
2018-05-10T05:06:31.047Z,23.48
2018-05-10T05:08:59.492Z,23.72
2018-05-10T05:11:27.829Z,23.29
2018-05-10T05:13:56.230Z,23.63
2018-05-10T05:16:25.033Z,23.72
2018-05-10T05:18:53.412Z,23.48
2018-05-10T05:21:21.794Z,23.23
2018-05-10T05:23:50.142Z,23.68
2018-05-10T05:26:20.035Z,23.50
2018-05-10T05:28:48.403Z,23.71
2018-05-10T05:31:16.850Z,23.99
2018-05-10T05:33:45.332Z,24.08
2018-05-10T05:36:13.721Z,23.99
2018-05-10T05:38:42.113Z,24.46
2018-05-10T05:41:10.588Z,24.14
2018-05-10T05:43:39.314Z,24.78
2018-05-10T05:46:07.679Z,25.07
2018-05-10T05:48:36.195Z,25.25
2018-05-10T05:51:04.963Z,24.80
2018-05-10T05:53:33.318Z,25.00
2018-05-10T05:56:01.715Z,24.75
2018-05-10T05:58:30.099Z,25.40
2018-05-10T06:00:58.459Z,25.51
2018-05-10T06:03:26.995Z,25.78
2018-05-10T06:05:55.358Z,25.87
2018-05-10T06:08:24.109Z,25.82
2018-05-10T06:10:52.479Z,25.11
2018-05-10T06:13:20.866Z,24.93
2018-05-10T06:15:49.344Z,24.93
2018-05-10T06:18:17.699Z,25.22
2018-05-10T06:20:46.074Z,25.50
2018-05-10T06:23:14.442Z,25.83
2018-05-10T06:25:42.866Z,26.17
2018-05-10T06:28:11.337Z,26.57
2018-05-10T06:30:39.701Z,26.51
2018-05-10T06:33:08.091Z,26.57
2018-05-10T06:35:36.461Z,26.48
2018-05-10T06:38:04.821Z,26.57
2018-05-10T06:40:33.300Z,26.09
2018-05-10T06:43:01.702Z,26.17
2018-05-10T06:45:30.170Z,26.22
2018-05-10T06:47:58.562Z,26.24
2018-05-10T06:50:26.923Z,26.55
2018-05-10T06:52:55.366Z,27.18
2018-05-10T06:55:24.868Z,27.33
2018-05-10T06:57:53.635Z,27.19
2018-05-10T07:00:21.998Z,26.86
2018-05-10T07:02:50.598Z,27.02
2018-05-10T07:05:18.967Z,27.49
2018-05-10T07:07:47.330Z,27.96
2018-05-10T07:10:15.700Z,28.37
2018-05-10T07:12:44.077Z,28.80
2018-05-10T07:15:12.461Z,28.88
2018-05-10T07:17:40.829Z,28.89
2018-05-10T07:20:09.237Z,28.95
2018-05-10T07:22:37.718Z,29.46
2018-05-10T07:25:06.304Z,29.65
2018-05-10T07:27:34.614Z,29.66
2018-05-10T07:30:03.474Z,29.81
2018-05-10T07:32:31.831Z,29.81
2018-05-10T07:35:00.222Z,30.44
2018-05-10T07:37:28.611Z,31.33
2018-05-10T07:39:56.989Z,31.99
2018-05-10T07:42:25.355Z,34.22
2018-05-10T07:44:53.732Z,35.74
2018-05-10T07:47:22.397Z,36.13
2018-05-10T07:49:50.726Z,35.71
2018-05-10T07:52:19.089Z,35.44
2018-05-10T07:54:47.464Z,35.42
2018-05-10T07:57:15.856Z,36.07
2018-05-10T07:59:44.237Z,36.10
2018-05-10T08:02:12.724Z,35.84
2018-05-10T08:04:41.064Z,37.08
2018-05-10T08:07:09.547Z,38.97
2018-05-10T08:09:37.908Z,40.43
2018-05-10T08:12:06.293Z,40.45
2018-05-10T08:14:34.723Z,40.85
2018-05-10T08:17:03.226Z,41.54
2018-05-10T08:19:31.557Z,42.60
2018-05-10T08:21:59.935Z,43.18
2018-05-10T08:24:28.319Z,43.68
2018-05-10T08:26:56.797Z,45.09
2018-05-10T08:29:33.050Z,45.32
2018-05-10T08:32:01.444Z,46.20
2018-05-10T08:34:29.848Z,45.50
2018-05-10T08:36:58.639Z,45.64
2018-05-10T08:39:27.033Z,45.91
2018-05-10T08:41:55.453Z,46.30
2018-05-10T08:44:23.837Z,45.35
2018-05-10T08:46:52.235Z,45.87
2018-05-10T08:49:21.122Z,45.78
2018-05-10T08:51:49.617Z,45.38
2018-05-10T08:54:18.291Z,44.94
2018-05-10T08:56:47.174Z,44.33
2018-05-10T08:59:15.559Z,44.34
2018-05-10T09:01:43.967Z,45.04
2018-05-10T09:04:12.437Z,45.85
2018-05-10T09:06:41.243Z,45.02
2018-05-10T09:09:10.126Z,44.38
2018-05-10T09:11:38.646Z,43.51
2018-05-10T09:14:07.058Z,43.93
2018-05-10T09:16:35.449Z,44.02
2018-05-10T09:19:03.826Z,44.62
2018-05-10T09:21:32.208Z,45.18
2018-05-10T09:24:01.088Z,44.78
2018-05-10T09:26:29.466Z,45.10
2018-05-10T09:28:57.851Z,45.95
2018-05-10T09:31:26.679Z,45.36
2018-05-10T09:33:55.172Z,46.32
2018-05-10T09:36:23.982Z,46.47
2018-05-10T09:38:52.385Z,45.15
2018-05-10T09:41:20.778Z,45.13
2018-05-10T09:43:49.660Z,44.18
2018-05-10T09:46:18.452Z,44.48
2018-05-10T09:48:46.825Z,43.77
2018-05-10T09:51:15.222Z,43.97
2018-05-10T09:53:44.036Z,42.87
2018-05-10T09:56:12.442Z,42.84
2018-05-10T09:58:40.857Z,44.17
2018-05-10T10:01:09.242Z,44.47
2018-05-10T10:03:38.084Z,45.34
2018-05-10T10:06:06.548Z,45.37
2018-05-10T10:08:35.480Z,44.26
2018-05-10T10:11:04.042Z,43.26
2018-05-10T10:13:32.386Z,42.65
2018-05-10T10:16:00.852Z,42.68
2018-05-10T10:18:29.207Z,42.30
2018-05-10T10:20:57.602Z,42.46
2018-05-10T10:23:25.966Z,42.87
2018-05-10T10:25:54.319Z,41.88
2018-05-10T10:28:22.682Z,41.15
2018-05-10T10:30:51.047Z,40.32
2018-05-10T10:33:19.886Z,40.65
2018-05-10T10:35:48.259Z,40.64
2018-05-10T10:38:16.719Z,40.78
2018-05-10T10:40:45.002Z,41.27
2018-05-10T10:43:13.358Z,40.33
2018-05-10T10:45:41.790Z,40.05
2018-05-10T10:48:10.159Z,39.93
2018-05-10T10:50:38.517Z,39.19
2018-05-10T10:53:06.919Z,40.10
2018-05-10T10:55:35.313Z,39.48
2018-05-10T10:58:03.674Z,38.88
2018-05-10T11:00:32.028Z,38.07
2018-05-10T11:03:00.426Z,38.17
2018-05-10T11:05:28.796Z,37.54
2018-05-10T11:07:57.174Z,37.20
2018-05-10T11:10:25.533Z,36.33
2018-05-10T11:12:53.910Z,35.97
2018-05-10T11:15:22.276Z,36.28
2018-05-10T11:17:51.147Z,37.43
2018-05-10T11:20:19.563Z,37.56
2018-05-10T11:22:48.051Z,37.30
2018-05-10T11:25:16.419Z,36.55
2018-05-10T11:27:44.800Z,35.95
2018-05-10T11:30:13.221Z,36.51
2018-05-10T11:32:41.580Z,36.21
2018-05-10T11:35:10.285Z,35.81
2018-05-10T11:37:38.667Z,35.68
2018-05-10T11:40:07.075Z,35.80
2018-05-10T11:42:35.443Z,35.92
2018-05-10T11:45:03.806Z,35.64
2018-05-10T11:47:32.174Z,35.17
2018-05-10T11:50:00.539Z,34.47
2018-05-10T11:52:28.999Z,34.57
2018-05-10T11:54:57.357Z,34.34
2018-05-10T11:57:26.153Z,34.90
2018-05-10T11:59:54.544Z,34.74
2018-05-10T12:02:22.911Z,34.68
2018-05-10T12:04:51.750Z,34.64
2018-05-10T12:07:20.122Z,34.93
2018-05-10T12:09:48.504Z,34.76
2018-05-10T12:12:16.883Z,34.14
2018-05-10T12:14:45.259Z,34.15
2018-05-10T12:17:13.624Z,34.05
2018-05-10T12:19:42.037Z,34.68
2018-05-10T12:22:10.428Z,34.77
2018-05-10T12:24:39.240Z,35.00
2018-05-10T12:27:08.022Z,34.74
2018-05-10T12:29:36.865Z,34.68
2018-05-10T12:32:05.269Z,34.54
2018-05-10T12:34:34.108Z,34.95
2018-05-10T12:37:02.479Z,35.48
2018-05-10T12:39:30.871Z,35.15
2018-05-10T12:41:59.246Z,34.85
2018-05-10T12:44:27.666Z,34.53
2018-05-10T12:46:56.036Z,34.58
2018-05-10T12:49:24.397Z,35.01
2018-05-10T12:51:52.810Z,35.08
2018-05-10T12:54:21.225Z,34.68
2018-05-10T12:56:49.643Z,34.82
2018-05-10T12:59:18.031Z,34.72
2018-05-10T13:01:46.396Z,34.98
2018-05-10T13:04:14.758Z,34.04
2018-05-10T13:06:43.450Z,33.80
2018-05-10T13:09:11.751Z,34.00
2018-05-10T13:11:40.272Z,33.92
2018-05-10T13:14:09.030Z,34.50
2018-05-10T13:16:37.402Z,34.58
2018-05-10T13:19:05.771Z,34.63
2018-05-10T13:21:34.143Z,34.24
2018-05-10T13:24:02.563Z,34.32
2018-05-10T13:26:31.418Z,34.15
2018-05-10T13:29:00.538Z,34.23
2018-05-10T13:31:29.258Z,33.74
2018-05-10T13:33:58.016Z,33.59
2018-05-10T13:36:26.383Z,33.99
2018-05-10T13:38:54.774Z,33.72
2018-05-10T13:41:23.833Z,33.36
2018-05-10T13:43:52.196Z,32.75
2018-05-10T13:46:20.700Z,33.31
2018-05-10T13:48:49.178Z,32.87
2018-05-10T13:51:17.540Z,33.06
2018-05-10T13:53:46.219Z,33.02
2018-05-10T13:56:14.605Z,32.84
2018-05-10T13:58:43.683Z,32.87
2018-05-10T14:01:12.398Z,32.54
2018-05-10T14:03:40.794Z,31.76
2018-05-10T14:06:09.173Z,32.58
2018-05-10T14:08:37.543Z,32.85
2018-05-10T14:11:06.008Z,32.38
2018-05-10T14:13:34.361Z,31.93
2018-05-10T14:16:02.792Z,32.15
2018-05-10T14:18:31.170Z,32.50
2018-05-10T14:20:59.563Z,32.54
2018-05-10T14:23:28.024Z,32.66
2018-05-10T14:25:56.428Z,32.49
2018-05-10T14:28:24.950Z,32.52
2018-05-10T14:30:53.370Z,32.38
2018-05-10T14:33:21.795Z,32.01
2018-05-10T14:35:50.159Z,32.02
2018-05-10T14:38:19.048Z,32.51
2018-05-10T14:40:47.424Z,32.45
2018-05-10T14:43:15.850Z,32.43
2018-05-10T14:45:44.234Z,32.22
2018-05-10T14:48:12.647Z,32.78
2018-05-10T14:50:41.035Z,33.03
2018-05-10T14:53:09.495Z,33.38
2018-05-10T14:55:38.015Z,33.51
2018-05-10T14:58:06.811Z,33.65
2018-05-10T15:00:35.693Z,33.78
2018-05-10T15:03:04.473Z,33.49
2018-05-10T15:05:32.934Z,34.06
2018-05-10T15:08:01.332Z,33.52
2018-05-10T15:10:29.726Z,33.44
2018-05-10T15:12:58.495Z,33.61
2018-05-10T15:15:26.860Z,33.62
2018-05-10T15:17:55.229Z,33.37
2018-05-10T15:20:23.754Z,33.35
2018-05-10T15:22:52.519Z,33.23
2018-05-10T15:25:20.888Z,33.15
2018-05-10T15:27:49.273Z,33.51
2018-05-10T15:30:17.746Z,33.65
2018-05-10T15:32:46.158Z,33.39
2018-05-10T15:35:14.935Z,33.57
2018-05-10T15:37:43.861Z,34.11
2018-05-10T15:40:12.246Z,33.58
2018-05-10T15:42:40.638Z,33.14
2018-05-10T15:45:09.020Z,30.18
2018-05-10T15:47:37.383Z,26.52
2018-05-10T15:50:05.745Z,26.16
2018-05-10T15:52:34.299Z,25.89
2018-05-10T15:55:02.684Z,26.12
2018-05-10T15:57:31.554Z,26.24
2018-05-10T15:59:59.937Z,26.34
2018-05-10T16:02:28.317Z,26.63
2018-05-10T16:04:56.728Z,26.76
2018-05-10T16:07:25.524Z,27.04
2018-05-10T16:09:53.963Z,27.19
2018-05-10T16:12:22.474Z,27.38
2018-05-10T16:14:51.219Z,27.63
2018-05-10T16:17:19.603Z,27.90
2018-05-10T16:19:47.981Z,28.05
2018-05-10T16:22:16.348Z,27.81
2018-05-10T16:24:44.756Z,27.98
2018-05-10T16:27:13.178Z,28.05
2018-05-10T16:29:41.564Z,27.94
2018-05-10T16:32:09.935Z,27.89
2018-05-10T16:34:38.311Z,27.94
2018-05-10T16:37:06.688Z,27.75
2018-05-10T16:39:35.085Z,27.53
2018-05-10T16:42:03.569Z,27.39
2018-05-10T16:44:31.981Z,27.51
2018-05-10T16:47:00.477Z,27.65
2018-05-10T16:49:28.891Z,27.76
2018-05-10T16:51:57.264Z,27.86
2018-05-10T16:54:25.632Z,27.93
2018-05-10T16:56:54.414Z,28.18
2018-05-10T16:59:23.179Z,28.24
2018-05-10T17:01:51.610Z,28.69
2018-05-10T17:04:20.247Z,29.05
2018-05-10T17:09:43.968Z,29.17
2018-05-10T17:12:12.730Z,28.93
2018-05-10T17:14:41.107Z,28.73
2018-05-10T17:17:09.658Z,28.63
2018-05-10T17:19:38.015Z,28.70
2018-05-10T17:22:06.837Z,28.69
2018-05-10T17:24:35.199Z,28.67
2018-05-10T17:27:03.565Z,28.37
2018-05-10T17:29:31.926Z,27.76
2018-05-10T17:32:00.686Z,27.33
2018-05-10T17:34:29.030Z,27.28
2018-05-10T17:36:57.413Z,27.01
2018-05-10T17:39:25.851Z,27.32
2018-05-10T17:41:54.590Z,27.72
2018-05-10T17:44:22.945Z,27.65
2018-05-10T17:46:51.288Z,27.59
2018-05-10T17:49:20.059Z,27.48
2018-05-10T17:51:48.397Z,27.63
2018-05-10T17:54:16.758Z,27.67
2018-05-10T17:56:45.157Z,27.83
2018-05-10T17:59:13.518Z,27.95
2018-05-10T18:01:41.887Z,28.01
2018-05-10T18:04:10.244Z,27.81
2018-05-10T18:06:39.082Z,27.55
2018-05-10T18:09:07.463Z,27.36
2018-05-10T18:11:35.828Z,26.49
2018-05-10T18:14:04.203Z,25.97
2018-05-10T18:16:32.594Z,25.78
2018-05-10T18:19:00.969Z,25.50
2018-05-10T18:21:29.343Z,25.48
2018-05-10T18:23:57.766Z,25.12
2018-05-10T18:26:26.134Z,25.15
2018-05-10T18:28:54.554Z,25.26
2018-05-10T18:31:23.402Z,24.79
2018-05-10T18:33:51.762Z,24.77
2018-05-10T18:36:20.137Z,25.14
2018-05-10T18:38:48.489Z,24.93
2018-05-10T18:41:16.871Z,24.80
2018-05-10T18:43:45.222Z,24.69
2018-05-10T18:46:13.978Z,24.83
2018-05-10T18:48:42.338Z,24.61
2018-05-10T18:51:10.698Z,24.69
2018-05-10T18:53:39.078Z,24.56
2018-05-10T18:56:07.482Z,24.39
2018-05-10T18:58:35.849Z,24.44
2018-05-10T19:01:04.213Z,24.24
2018-05-10T19:03:32.700Z,24.34
2018-05-10T19:06:01.177Z,24.47
2018-05-10T19:08:29.568Z,24.67
2018-05-10T19:10:57.926Z,24.68
2018-05-10T19:13:26.326Z,24.59
2018-05-10T19:15:54.690Z,24.59
2018-05-10T19:18:23.071Z,24.78
2018-05-10T19:20:51.503Z,24.57
2018-05-10T19:23:19.847Z,24.84
2018-05-10T19:25:48.206Z,24.78
2018-05-10T19:28:16.566Z,24.62
2018-05-10T19:30:44.929Z,24.62
2018-05-10T19:33:13.781Z,24.46
2018-05-10T19:35:42.137Z,24.14
2018-05-10T19:38:10.534Z,23.88
2018-05-10T19:40:38.993Z,23.93
2018-05-10T19:43:07.395Z,24.02
2018-05-10T19:45:35.761Z,23.81
2018-05-10T19:48:04.153Z,24.03
2018-05-10T19:50:32.530Z,23.85
2018-05-10T19:53:00.890Z,23.81
2018-05-10T19:55:29.240Z,23.96
2018-05-10T19:57:57.991Z,24.13
2018-05-10T20:00:26.349Z,24.01
2018-05-10T20:02:54.755Z,24.54
2018-05-10T20:05:23.211Z,24.45
2018-05-10T20:07:51.581Z,24.54
2018-05-10T20:10:19.974Z,24.36
2018-05-10T20:12:48.554Z,23.96
2018-05-10T20:15:16.919Z,23.83
2018-05-10T20:17:45.298Z,23.98
2018-05-10T20:20:13.710Z,24.04
2018-05-10T20:22:42.065Z,23.98
2018-05-10T20:25:10.505Z,24.03
2018-05-10T20:27:39.259Z,23.60
2018-05-10T20:30:07.630Z,24.01
2018-05-10T20:32:35.998Z,24.42
2018-05-10T20:35:04.353Z,24.44
2018-05-10T20:37:32.727Z,24.46
2018-05-10T20:40:01.091Z,24.66
2018-05-10T20:42:29.478Z,24.73
2018-05-10T20:44:57.838Z,24.66
2018-05-10T20:47:26.602Z,24.53
2018-05-10T20:49:54.966Z,24.60
2018-05-10T20:52:23.320Z,24.50
2018-05-10T20:54:51.702Z,24.68
2018-05-10T20:57:20.073Z,24.62
2018-05-10T20:59:48.470Z,24.57
2018-05-10T21:02:16.834Z,24.57
2018-05-10T21:04:45.223Z,24.50
2018-05-10T21:07:13.622Z,24.38
2018-05-10T21:09:42.000Z,24.02
2018-05-10T21:12:10.369Z,24.20
2018-05-10T21:14:38.747Z,24.15
2018-05-10T21:17:07.143Z,24.14
2018-05-10T21:19:35.531Z,24.06
2018-05-10T21:22:03.889Z,23.98
2018-05-10T21:24:32.905Z,24.05
2018-05-10T21:27:01.275Z,24.05
2018-05-10T21:29:29.716Z,24.27
2018-05-10T21:31:58.095Z,24.25
2018-05-10T21:34:26.494Z,24.12
2018-05-10T21:36:54.862Z,24.15
2018-05-10T21:39:23.255Z,23.84
2018-05-10T21:41:51.627Z,23.99
2018-05-10T21:44:20.118Z,23.88
2018-05-10T21:46:48.499Z,23.69
2018-05-10T21:49:34.695Z,23.79
2018-05-10T21:52:03.174Z,23.06
2018-05-10T21:54:31.648Z,23.15
2018-05-10T21:57:00.019Z,23.30
2018-05-10T21:59:28.380Z,23.02
2018-05-10T22:01:56.759Z,22.96
2018-05-10T22:04:25.114Z,22.87
2018-05-10T22:06:53.490Z,23.08
2018-05-10T22:09:22.444Z,22.95
2018-05-10T22:11:50.794Z,23.02
2018-05-10T22:14:19.255Z,22.70
2018-05-10T22:16:47.617Z,22.64
2018-05-10T22:19:16.375Z,22.75
2018-05-10T22:21:44.942Z,22.80
2018-05-10T22:24:13.441Z,22.71
2018-05-10T22:26:41.901Z,22.67
2018-05-10T22:29:10.262Z,22.62
2018-05-10T22:31:38.622Z,22.47
2018-05-10T22:34:06.990Z,22.40
2018-05-10T22:36:35.842Z,22.06
2018-05-10T22:39:06.795Z,22.43
2018-05-10T22:41:35.146Z,22.63
2018-05-10T22:44:03.529Z,22.59
2018-05-10T22:46:31.921Z,22.74
2018-05-10T22:49:00.274Z,22.30
2018-05-10T22:51:28.670Z,22.42
2018-05-10T22:53:57.047Z,22.49
2018-05-10T22:56:25.403Z,22.30
2018-05-10T22:58:53.799Z,22.21
2018-05-10T23:01:22.162Z,22.23
2018-05-10T23:03:50.542Z,21.96
2018-05-10T23:06:18.954Z,21.66
2018-05-10T23:08:47.319Z,21.74
2018-05-10T23:11:15.674Z,21.94
2018-05-10T23:13:44.055Z,21.88
2018-05-10T23:16:12.437Z,21.86
2018-05-10T23:18:40.806Z,21.62
2018-05-10T23:21:09.169Z,21.58
2018-05-10T23:23:37.534Z,21.80
2018-05-10T23:26:06.282Z,22.10
2018-05-10T23:28:34.662Z,22.05
2018-05-10T23:31:03.023Z,21.93
2018-05-10T23:33:31.412Z,21.91
2018-05-10T23:35:59.998Z,21.67
2018-05-10T23:38:28.353Z,21.55
2018-05-10T23:40:56.751Z,21.56
2018-05-10T23:43:25.138Z,21.58
2018-05-10T23:45:53.645Z,21.38
2018-05-10T23:48:22.010Z,21.40
2018-05-10T23:50:50.362Z,21.51
2018-05-10T23:53:18.744Z,21.39
2018-05-10T23:55:47.225Z,21.19
2018-05-10T23:58:15.574Z,21.30
